Time;durP1;ratioP1;P1;durP2;ratioP2;P2;SDS_P1;SDS_P2;PMS_P1;PMS_P2;Temp;Humidity;BMP_temperature;BMP_pressure;BME280_temperature;BME280_humidity;BME280_pressure;Samples;Min_cycle;Max_cycle;Signal;HPM_P1;HPM_P2
2023/06/06 00:05:04;;;;;;;3.25;2.78;;;;;;;;;;4925628;29;20068;-81
2023/06/06 00:08:33;;;;;;;3.60;2.95;;;;;;;;;;4922761;29;20029;-79
2023/06/06 00:11:24;;;;;;;2.97;2.67;;;;;;;;;;4924501;29;20017;-81
2023/06/06 00:14:36;;;;;;;7.15;3.00;;;;;;;;;;4924805;29;20036;-81
2023/06/06 00:20:32;;;;;;;4.07;2.70;;;;;;;;;;4879370;29;20049;-80
2023/06/06 00:23:20;;;;;;;5.78;2.63;;;;;;;;;;4940979;29;20035;-80
2023/06/06 00:26:02;;;;;;;3.45;2.35;;;;;;;;;;4943001;29;20040;-80
2023/06/06 00:29:19;;;;;;;2.60;2.38;;;;;;;;;;4956072;28;20027;-80
2023/06/06 00:32:53;;;;;;;4.40;2.67;;;13.00;99.90;;;;;;4941973;29;20032;-82
2023/06/06 00:36:01;;;;;;;5.30;2.90;;;;;;;;;;4943661;29;20016;-80
2023/06/06 00:38:32;;;;;;;4.15;3.30;;;;;;;;;;4938118;29;20020;-81
2023/06/06 00:41:08;;;;;;;3.80;2.63;;;;;;;;;;4943112;29;20087;-81
2023/06/06 00:43:35;;;;;;;4.45;2.78;;;;;;;;;;4940703;29;20026;-81
2023/06/06 00:46:32;;;;;;;4.28;3.50;;;13.00;99.90;;;;;;4942047;29;20039;-81
2023/06/06 00:52:31;;;;;;;3.15;2.85;;;;;;;;;;4981845;28;20016;-82
2023/06/06 00:55:20;;;;;;;3.67;2.92;;;;;;;;;;4980728;28;20051;-81
2023/06/06 00:58:02;;;;;;;9.50;3.47;;;;;;;;;;4979784;28;20094;-81
2023/06/06 01:00:32;;;;;;;2.78;2.47;;;;;;;;;;4978774;28;20031;-81
2023/06/06 01:03:24;;;;;;;3.75;3.28;;;;;;;;;;4978751;28;20013;-81
2023/06/06 01:06:37;;;;;;;4.25;3.55;;;12.70;99.90;;;;;;4980020;28;20082;-82
2023/06/06 01:09:30;;;;;;;7.32;2.58;;;;;;;;;;4965461;28;20086;-80
2023/06/06 01:12:32;;;;;;;4.60;2.53;;;;;;;;;;4980251;28;20027;-80
2023/06/06 01:22:22;;;;;;;2.92;2.55;;;;;;;;;;4904895;29;20076;-81
2023/06/06 01:25:57;;;;;;;5.13;3.53;;;12.40;99.90;;;;;;4887983;29;20033;-82
2023/06/06 01:29:20;;;;;;;5.53;2.83;;;;;;;;;;4890449;29;20025;-81
2023/06/06 01:42:07;;;;;;;6.32;3.53;;;;;;;;;;5484578;23;20042;-77
2023/06/06 01:45:13;;;;;;;4.03;2.90;;;12.20;99.90;;;;;;4993449;28;20059;-82
2023/06/06 01:47:42;;;;;;;5.15;2.75;;;;;;;;;;4998713;28;20091;-82
2023/06/06 01:50:08;;;;;;;4.45;3.13;;;;;;;;;;5000140;28;20049;-81
2023/06/06 01:55:41;;;;;;;4.20;2.97;;;;;;;;;;4959587;28;20073;-81
2023/06/06 02:05:25;;;;;;;2.45;2.20;;;;;;;;;;4942264;29;20055;-82
2023/06/06 02:07:57;;;;;;;3.40;2.78;;;;;;;;;;4941696;29;20055;-80
2023/06/06 02:23:13;;;;;;;4.80;3.13;;;;;;;;;;4896748;29;20033;-81
2023/06/06 02:26:21;;;;;;;3.65;2.90;;;;;;;;;;4889476;29;20009;-79
2023/06/06 02:29:51;;;;;;;4.15;2.88;;;11.60;99.90;;;;;;4901446;29;20067;-81
2023/06/06 02:32:29;;;;;;;8.30;3.08;;;11.50;99.90;;;;;;4922930;28;20016;-78
2023/06/06 02:41:28;;;;;;;5.60;3.05;;;;;;;;;;4959487;28;20014;-80
2023/06/06 02:44:19;;;;;;;5.00;2.83;;;;;;;;;;4970430;28;20034;-79
2023/06/06 02:46:46;;;;;;;6.25;3.15;;;;;;;;;;4998478;28;20038;-80
2023/06/06 02:49:21;;;;;;;3.72;3.17;;;;;;;;;;4999055;28;20019;-81
2023/06/06 02:51:47;;;;;;;2.97;2.67;;;;;;;;;;4999343;28;20062;-80
2023/06/06 02:54:26;;;;;;;5.20;2.70;;;;;;;;;;4999029;28;20015;-80
2023/06/06 02:57:18;;;;;;;3.38;2.13;;;;;;;;;;4999075;28;20042;-81
2023/06/06 03:00:23;;;;;;;5.53;2.63;;;11.10;99.90;;;;;;4999776;28;20014;-80
2023/06/06 03:06:42;;;;;;;4.07;2.75;;;;;;;;;;4979382;28;20057;-80
2023/06/06 03:15:03;;;;;;;6.28;2.45;;;;;;;;;;4940425;29;20022;-80
2023/06/06 03:20:33;;;;;;;3.58;2.10;;;11.10;99.90;;;;;;4940918;29;20039;-80
2023/06/06 03:23:19;;;;;;;4.18;2.92;;;;;;;;;;4940470;29;20049;-82
2023/06/06 03:26:03;;;;;;;4.10;2.88;;;;;;;;;;4941111;29;20048;-80
2023/06/06 03:28:32;;;;;;;4.78;2.20;;;;;;;;;;4956348;28;20032;-82
2023/06/06 03:31:08;;;;;;;5.15;2.30;;;;;;;;;;4959225;28;20047;-81
2023/06/06 03:33:46;;;;;;;7.22;2.58;;;;;;;;;;4959374;28;20012;-79
2023/06/06 03:36:14;;;;;;;7.32;2.75;;;11.00;99.90;;;;;;4943760;28;20091;-81
2023/06/06 03:38:40;;;;;;;6.50;2.47;;;;;;;;;;4944031;28;20019;-81
2023/06/06 03:41:27;;;;;;;3.30;2.20;;;;;;;;;;4997448;28;20026;-80
2023/06/06 03:43:55;;;;;;;4.45;2.25;;;;;;;;;;4998801;28;20086;-81
2023/06/06 03:46:42;;;;;;;3.08;2.35;;;10.80;99.90;;;;;;4998750;28;20066;-81
2023/06/06 03:49:28;;;;;;;5.00;2.55;;;10.80;99.90;;;;;;4998925;28;20014;-80
2023/06/06 03:52:07;;;;;;;2.80;2.50;;;;;;;;;;4994038;28;20054;-81
2023/06/06 03:55:03;;;;;;;3.42;2.22;;;;;;;;;;4998640;28;20023;-81
2023/06/06 03:57:30;;;;;;;2.97;2.05;;;;;;;;;;4998756;28;20021;-82
2023/06/06 04:00:04;;;;;;;3.80;2.13;;;;;;;;;;4996137;28;20057;-79
2023/06/06 04:02:36;;;;;;;2.13;1.92;;;;;;;;;;4997811;28;20019;-80
2023/06/06 04:05:21;;;;;;;4.32;2.70;;;;;;;;;;4997436;28;20019;-81
2023/06/06 04:07:49;;;;;;;4.90;2.78;;;;;;;;;;4997184;28;20050;-81
2023/06/06 04:10:34;;;;;;;3.63;2.47;;;;;;;;;;4980892;28;20035;-82
2023/06/06 04:13:20;;;;;;;2.55;2.22;;;;;;;;;;4995457;28;20019;-81
2023/06/06 04:15:54;;;;;;;3.50;2.60;;;11.30;99.90;;;;;;4995197;28;20055;-80
2023/06/06 04:18:27;;;;;;;2.42;2.20;;;;;;;;;;4979289;28;20038;-81
2023/06/06 04:20:56;;;;;;;2.20;2.00;;;;;;;;;;4996263;28;20098;-80
2023/06/06 04:23:24;;;;;;;2.60;2.40;;;;;;;;;;4997867;28;20098;-80
2023/06/06 04:26:11;;;;;;;4.53;1.77;;;;;;;;;;4998296;28;20125;-80
2023/06/06 04:29:13;;;;;;;4.28;2.10;;;11.40;99.90;;;;;;5000953;28;20023;-81
2023/06/06 04:31:44;;;;;;;2.25;2.05;;;;;;;;;;4960059;28;20381;-81
2023/06/06 04:34:57;;;;;;;2.20;1.85;;;11.70;99.90;;;;;;4956891;28;20030;-81
2023/06/06 04:38:07;;;;;;;4.35;2.60;;;11.80;99.90;;;;;;4942670;28;20064;-81
2023/06/06 04:40:34;;;;;;;2.70;2.50;;;;;;;;;;4943345;29;20035;-81
2023/06/06 04:43:34;;;;;;;3.45;2.03;;;12.60;99.90;;;;;;4943501;29;20043;-80
2023/06/06 04:46:29;;;;;;;2.80;2.53;;;12.90;99.90;;;;;;4954513;29;20035;-80
2023/06/06 04:49:02;;;;;;;4.53;2.00;;;13.20;99.90;;;;;;4958484;29;20052;-81
2023/06/06 04:51:40;;;;;;;2.80;2.13;;;;;;;;;;4958422;29;20032;-81
2023/06/06 04:54:17;;;;;;;3.05;2.05;;;13.30;99.90;;;;;;4944182;29;20123;-80
2023/06/06 04:56:51;;;;;;;5.10;2.33;;;;;;;;;;4946288;29;20031;-82
2023/06/06 05:00:05;;;;;;;3.95;2.20;;;13.50;99.90;;;;;;4953244;29;20513;-80
2023/06/06 05:02:32;;;;;;;3.58;1.90;;;13.40;99.90;;;;;;4961976;28;20066;-81
2023/06/06 05:04:58;;;;;;;3.38;2.10;;;;;;;;;;4980573;28;20725;-81
2023/06/06 05:07:25;;;;;;;3.13;1.92;;;;;;;;;;4992145;28;20047;-81
2023/06/06 05:09:57;;;;;;;3.08;2.10;;;13.50;99.90;;;;;;4994921;28;20034;-80
2023/06/06 05:12:32;;;;;;;2.60;2.40;;;;;;;;;;4990508;28;20038;-81
2023/06/06 05:15:00;;;;;;;3.58;2.60;;;;;;;;;;4993379;28;20264;-80
2023/06/06 05:17:28;;;;;;;3.08;2.33;;;13.90;99.90;;;;;;4989513;28;20037;-80
2023/06/06 05:19:55;;;;;;;3.50;1.88;;;13.90;99.90;;;;;;4989476;28;20015;-83
2023/06/06 05:22:24;;;;;;;2.25;2.15;;;14.00;99.90;;;;;;4974271;28;20031;-81
2023/06/06 05:24:50;;;;;;;3.75;2.20;;;;;;;;;;4972983;28;20023;-82
2023/06/06 05:27:24;;;;;;;3.63;2.35;;;14.10;99.90;;;;;;4979516;28;20066;-81
2023/06/06 05:29:50;;;;;;;3.17;2.50;;;;;;;;;;4996985;28;20050;-81
2023/06/06 05:32:16;;;;;;;3.05;2.20;;;;;;;;;;4995188;28;20018;-80
2023/06/06 05:34:49;;;;;;;6.85;2.17;;;14.50;99.90;;;;;;4986441;28;20058;-84
2023/06/06 05:37:18;;;;;;;3.15;2.20;;;14.40;99.90;;;;;;4979172;28;20085;-83
2023/06/06 05:39:43;;;;;;;6.82;2.38;;;14.60;99.90;;;;;;4963709;28;20027;-78
2023/06/06 05:42:09;;;;;;;3.13;2.38;;;14.70;99.90;;;;;;4978800;28;20082;-78
2023/06/06 05:44:35;;;;;;;4.00;2.20;;;14.80;99.90;;;;;;4983891;28;20339;-80
2023/06/06 05:47:00;;;;;;;3.47;2.20;;;14.90;99.90;;;;;;4983486;28;20358;-78
2023/06/06 05:49:26;;;;;;;3.42;3.13;;;15.10;99.90;;;;;;4964670;28;20026;-79
2023/06/06 05:51:52;;;;;;;4.85;3.28;;;15.50;99.90;;;;;;4982845;28;20074;-79
2023/06/06 05:54:17;;;;;;;4.75;3.20;;;15.50;99.90;;;;;;4982662;28;20030;-81
2023/06/06 05:56:43;;;;;;;2.78;2.58;;;15.80;99.90;;;;;;4983096;28;20022;-77
2023/06/06 05:59:09;;;;;;;4.53;3.20;;;15.90;99.90;;;;;;4979001;28;20030;-80
2023/06/06 06:01:36;;;;;;;7.00;3.15;;;16.10;99.90;;;;;;4982451;28;20068;-84
2023/06/06 06:04:02;;;;;;;8.32;2.67;;;16.20;99.90;;;;;;4964176;28;20094;-77
2023/06/06 06:06:27;;;;;;;5.57;2.83;;;16.50;99.90;;;;;;4963345;28;20037;-82
2023/06/06 06:08:55;;;;;;;7.43;2.80;;;16.80;99.90;;;;;;4963731;28;20022;-82
2023/06/06 06:11:20;;;;;;;3.78;3.38;;;17.00;99.90;;;;;;4963893;28;20026;-85
2023/06/06 06:13:46;;;;;;;7.20;3.13;;;17.20;99.90;;;;;;4964331;28;20070;-83
2023/06/06 06:16:13;;;;;;;4.45;3.50;;;17.40;99.90;;;;;;4964416;28;20169;-82
2023/06/06 06:18:39;;;;;;;7.03;3.30;;;17.50;99.90;;;;;;4981752;28;20023;-84
2023/06/06 06:21:05;;;;;;;3.35;3.05;;;17.70;99.90;;;;;;4984178;28;20374;-83
2023/06/06 06:23:30;;;;;;;6.18;3.85;;;17.90;99.90;;;;;;4984388;28;20356;-86
2023/06/06 06:25:56;;;;;;;5.50;3.40;;;17.90;99.90;;;;;;4982146;28;20019;-83
2023/06/06 06:28:24;;;;;;;4.10;3.30;;;17.90;99.90;;;;;;4981672;28;20030;-85
2023/06/06 06:30:50;;;;;;;9.95;3.75;;;17.90;99.90;;;;;;4981269;28;20057;-86
2023/06/06 06:33:16;;;;;;;10.02;3.40;;;18.00;99.90;;;;;;4980009;28;20027;-89
2023/06/06 06:35:43;;;;;;;3.78;3.40;;;18.20;99.90;;;;;;4979713;28;20240;-88
2023/06/06 06:38:08;;;;;;;9.77;3.95;;;18.70;99.90;;;;;;4981160;28;20037;-83
2023/06/06 06:40:34;;;;;;;7.97;4.32;;;19.80;99.90;;;;;;4981068;28;20251;-86
2023/06/06 06:43:00;;;;;;;5.93;3.40;;;20.80;99.90;;;;;;4980847;28;20059;-80
2023/06/06 06:45:26;;;;;;;5.63;3.63;;;21.70;99.00;;;;;;4980124;28;20427;-81
2023/06/06 06:47:52;;;;;;;9.93;3.67;;;22.90;93.80;;;;;;4980643;28;20077;-84
2023/06/06 06:50:18;;;;;;;9.85;3.63;;;23.60;89.90;;;;;;4981343;28;20022;-84
2023/06/06 06:52:43;;;;;;;5.60;3.38;;;23.60;86.60;;;;;;4982107;28;20030;-82
2023/06/06 06:55:10;;;;;;;4.45;3.67;;;22.50;82.80;;;;;;4982037;28;20091;-80
2023/06/06 06:57:38;;;;;;;6.47;3.13;;;24.80;78.40;;;;;;4981201;28;20022;-80
2023/06/06 07:00:12;;;;;;;6.35;2.72;;;25.00;76.30;;;;;;4980683;28;20325;-82
2023/06/06 07:02:39;;;;;;;3.35;2.55;;;25.20;73.40;;;;;;4981015;28;20037;-85
2023/06/06 07:05:06;;;;;;;4.32;3.00;;;25.30;72.30;;;;;;4980592;28;20081;-82
2023/06/06 07:07:32;;;;;;;5.50;2.75;;;25.30;71.10;;;;;;4964038;28;20110;-82
2023/06/06 07:09:58;;;;;;;4.22;2.75;;;25.20;69.50;;;;;;4980327;28;20023;-83
2023/06/06 07:12:24;;;;;;;5.63;2.95;;;25.70;70.20;;;;;;4982074;28;20332;-82
2023/06/06 07:14:49;;;;;;;2.63;2.42;;;26.10;68.30;;;;;;4984818;28;20023;-88
2023/06/06 07:17:15;;;;;;;5.35;2.90;;;26.40;68.90;;;;;;4986388;28;20026;-83
2023/06/06 07:19:42;;;;;;;4.80;2.70;;;26.50;67.70;;;;;;4981950;28;20023;-81
2023/06/06 07:22:10;;;;;;;3.45;2.58;;;26.60;66.20;;;;;;4981394;28;20015;-82
2023/06/06 07:24:36;;;;;;;5.82;3.85;;;26.80;66.40;;;;;;4982104;28;20093;-79
2023/06/06 07:27:02;;;;;;;3.83;2.20;;;26.50;65.70;;;;;;4979971;28;20106;-80
2023/06/06 07:29:29;;;;;;;6.90;2.30;;;26.40;66.00;;;;;;4979733;28;20169;-80
2023/06/06 07:31:55;;;;;;;3.83;2.63;;;26.80;65.50;;;;;;4981367;28;20097;-81
2023/06/06 07:34:21;;;;;;;8.15;2.53;;;27.20;64.90;;;;;;4980039;28;20023;-81
2023/06/06 07:36:47;;;;;;;5.45;2.88;;;;;;;;;;4979985;28;20054;-79
2023/06/06 07:39:13;;;;;;;4.10;3.08;;;27.20;63.40;;;;;;4980008;28;20018;-79
2023/06/06 07:41:39;;;;;;;7.70;3.67;;;;;;;;;;4963795;28;20038;-79
2023/06/06 07:44:05;;;;;;;4.22;2.65;;;;;;;;;;4979771;28;20122;-80
2023/06/06 07:46:31;;;;;;;7.28;2.38;;;26.40;64.10;;;;;;4981452;28;20105;-89
2023/06/06 07:48:58;;;;;;;3.03;2.60;;;26.40;64.10;;;;;;4984720;28;20326;-83
2023/06/06 07:51:24;;;;;;;6.00;3.88;;;26.60;64.10;;;;;;4965545;28;20315;-82
2023/06/06 07:53:49;;;;;;;6.68;4.80;;;27.10;64.10;;;;;;4978408;28;20135;-78
2023/06/06 07:56:16;;;;;;;5.82;2.28;;;27.40;64.20;;;;;;4982753;28;20239;-78
2023/06/06 07:58:46;;;;;;;3.28;2.58;;;27.10;62.70;;;;;;4979990;28;20331;-76
2023/06/06 08:01:13;;;;;;;4.95;2.42;;;27.20;63.30;;;;;;4982609;28;20031;-78
2023/06/06 08:03:39;;;;;;;5.30;3.00;;;27.10;62.80;;;;;;4983746;28;20019;-78
2023/06/06 08:06:05;;;;;;;2.97;2.63;;;27.00;63.40;;;;;;4983646;28;20033;-77
2023/06/06 08:08:31;;;;;;;2.28;2.00;;;27.20;63.20;;;;;;4982939;28;20041;-79
2023/06/06 08:10:57;;;;;;;3.10;2.17;;;27.10;64.10;;;;;;4984216;28;20109;-77
2023/06/06 08:13:23;;;;;;;4.82;2.67;;;27.50;63.20;;;;;;4984586;28;20107;-76
2023/06/06 08:15:48;;;;;;;3.05;2.67;;;26.90;61.80;;;;;;4967393;28;20019;-81
2023/06/06 08:18:15;;;;;;;4.68;3.30;;;26.10;63.80;;;;;;4983933;28;20046;-81
2023/06/06 08:20:41;;;;;;;3.42;2.45;;;;;;;;;;4984689;28;20021;-81
2023/06/06 08:23:06;;;;;;;2.35;2.17;;;26.30;64.30;;;;;;4967242;28;20049;-81
2023/06/06 08:25:38;;;;;;;3.13;2.50;;;26.50;63.50;;;;;;4983083;28;20022;-79
2023/06/06 08:28:04;;;;;;;4.80;2.50;;;26.70;62.90;;;;;;4983134;28;20031;-79
2023/06/06 08:30:29;;;;;;;4.38;2.50;;;26.80;62.10;;;;;;4984075;28;20030;-79
2023/06/06 08:32:55;;;;;;;3.20;1.90;;;26.80;62.90;;;;;;4967106;28;20019;-79
2023/06/06 08:35:22;;;;;;;5.97;2.55;;;26.40;62.30;;;;;;4984204;28;20250;-83
2023/06/06 08:37:48;;;;;;;3.00;2.60;;;;;;;;;;4983024;28;20085;-83
2023/06/06 08:40:14;;;;;;;3.63;2.53;;;;;;;;;;4966913;28;20038;-84
2023/06/06 08:42:47;;;;;;;2.80;2.60;;;25.90;62.10;;;;;;4967817;28;20057;-82
2023/06/06 08:45:13;;;;;;;3.55;2.22;;;25.40;64.40;;;;;;4966366;28;20018;-80
2023/06/06 08:47:42;;;;;;;4.07;2.25;;;25.70;66.50;;;;;;4966487;28;20286;-80
2023/06/06 08:50:08;;;;;;;4.63;2.40;;;25.90;62.90;;;;;;4983484;28;20019;-77
2023/06/06 08:52:35;;;;;;;3.17;2.22;;;25.70;64.90;;;;;;4983765;28;20238;-77
2023/06/06 08:55:03;;;;;;;2.55;2.08;;;26.10;63.70;;;;;;4966996;28;20226;-79
2023/06/06 08:57:29;;;;;;;7.40;2.85;;;26.40;63.50;;;;;;4964826;29;20066;-80
2023/06/06 08:59:54;;;;;;;3.33;2.35;;;27.00;62.60;;;;;;4963878;29;20078;-80
2023/06/06 09:02:22;;;;;;;16.35;11.77;;;27.10;62.20;;;;;;4965137;29;20059;-78
2023/06/06 09:04:48;;;;;;;9.15;6.03;;;27.10;62.30;;;;;;4963076;28;20050;-79
2023/06/06 09:07:15;;;;;;;2.30;2.10;;;27.40;62.00;;;;;;4964310;29;20047;-79
2023/06/06 09:09:45;;;;;;;2.95;2.20;;;27.70;58.10;;;;;;4962962;29;20256;-79
2023/06/06 09:12:11;;;;;;;2.15;1.90;;;27.80;59.40;;;;;;4963103;28;20027;-79
2023/06/06 09:14:36;;;;;;;2.53;2.30;;;27.80;59.60;;;;;;4963948;29;20027;-80
2023/06/06 09:17:03;;;;;;;2.55;2.10;;;27.80;58.20;;;;;;4964595;28;20066;-81
2023/06/06 09:19:30;;;;;;;2.05;1.77;;;;;;;;;;4964157;29;20102;-83
2023/06/06 09:22:05;;;;;;;3.60;2.30;;;27.90;58.90;;;;;;4947584;29;20119;-80
2023/06/06 09:24:31;;;;;;;2.45;2.25;;;28.10;56.20;;;;;;4962767;29;20062;-80
2023/06/06 09:26:56;;;;;;;1.92;1.60;;;28.10;57.00;;;;;;4963944;29;20035;-83
2023/06/06 09:29:25;;;;;;;2.30;2.00;;;;;;;;;;4966785;29;20069;-86
2023/06/06 09:31:50;;;;;;;4.15;2.17;;;28.00;56.50;;;;;;4948217;29;20027;-87
2023/06/06 09:34:23;;;;;;;1.75;1.65;;;28.20;57.70;;;;;;4964944;29;20098;-84
2023/06/06 09:36:48;;;;;;;2.35;1.90;;;28.40;57.20;;;;;;4965348;29;20248;-83
2023/06/06 09:39:15;;;;;;;5.10;2.03;;;28.20;58.40;;;;;;4965244;29;20057;-83
2023/06/06 09:41:47;;;;;;;2.25;1.88;;;28.40;57.00;;;;;;4964877;29;20054;-85
2023/06/06 09:44:31;;;;;;;2.75;2.00;;;28.10;55.00;;;;;;4963901;29;20061;-87
2023/06/06 09:47:02;;;;;;;2.80;2.05;;;27.80;57.00;;;;;;4963945;29;20043;-82
2023/06/06 09:49:33;;;;;;;2.53;1.85;;;27.30;55.90;;;;;;4964131;29;20251;-82
2023/06/06 09:51:59;;;;;;;3.05;2.13;;;;;;;;;;4964401;29;20015;-83
2023/06/06 09:54:24;;;;;;;4.20;2.03;;;27.30;59.30;;;;;;4958028;28;20077;-79
2023/06/06 09:56:51;;;;;;;2.30;2.13;;;27.30;59.10;;;;;;4984830;28;20026;-80
2023/06/06 09:59:20;;;;;;;2.80;2.10;;;27.70;59.10;;;;;;4980506;28;20331;-80
2023/06/06 10:01:53;;;;;;;4.90;2.72;;;28.20;58.00;;;;;;4965468;28;20046;-80
2023/06/06 10:04:19;;;;;;;2.55;2.05;;;28.80;57.50;;;;;;4965349;28;20022;-80
2023/06/06 10:06:46;;;;;;;4.88;2.25;;;28.20;55.50;;;;;;4983044;28;20054;-81
2023/06/06 10:09:12;;;;;;;2.92;2.05;;;27.90;57.80;;;;;;4965772;28;20023;-81
2023/06/06 10:11:39;;;;;;;3.22;2.42;;;28.30;56.40;;;;;;4964651;28;20112;-80
2023/06/06 10:14:05;;;;;;;2.90;2.20;;;28.60;58.40;;;;;;4963909;28;20043;-80
2023/06/06 10:16:34;;;;;;;5.93;1.92;;;29.00;56.60;;;;;;4964230;28;20082;-81
2023/06/06 10:19:00;;;;;;;2.55;2.35;;;29.60;56.50;;;;;;4963417;28;20034;-80
2023/06/06 10:21:28;;;;;;;2.60;2.22;;;29.90;55.10;;;;;;4963857;28;20486;-78
2023/06/06 10:23:54;;;;;;;2.10;2.00;;;30.40;55.90;;;;;;4964346;28;20022;-78
2023/06/06 10:26:32;;;;;;;3.17;2.15;;;30.20;53.70;;;;;;4964880;28;20094;-77
2023/06/06 10:29:14;;;;;;;5.32;2.33;;;29.60;53.80;;;;;;4964005;28;20054;-80
2023/06/06 10:31:56;;;;;;;2.97;2.22;;;29.70;55.80;;;;;;4960156;28;20031;-80
2023/06/06 10:34:33;;;;;;;3.17;2.22;;;30.20;55.00;;;;;;4964294;28;20031;-78
2023/06/06 10:37:22;;;;;;;2.17;2.08;;;30.40;53.60;;;;;;4981655;28;20567;-81
2023/06/06 10:40:01;;;;;;;2.67;2.47;;;30.80;52.90;;;;;;4963727;28;20046;-80
2023/06/06 10:42:37;;;;;;;2.25;2.15;;;30.60;51.70;;;;;;4964574;28;20260;-78
2023/06/06 10:45:03;;;;;;;2.22;2.03;;;31.40;52.20;;;;;;4960587;28;20047;-81
2023/06/06 10:47:40;;;;;;;4.25;2.35;;;30.60;51.30;;;;;;4960441;29;20043;-80
2023/06/06 10:50:12;;;;;;;2.80;2.33;;;30.60;50.60;;;;;;4960083;29;20051;-86
2023/06/06 10:53:04;;;;;;;2.50;2.22;;;30.10;51.30;;;;;;4944379;29;20031;-79
2023/06/06 10:55:30;;;;;;;2.58;2.38;;;29.50;50.60;;;;;;4960037;29;20188;-80
2023/06/06 10:58:02;;;;;;;6.03;2.88;;;29.80;51.00;;;;;;4943835;29;20038;-81
2023/06/06 11:00:32;;;;;;;2.53;2.28;;;30.30;51.30;;;;;;4954538;29;20053;-76
2023/06/06 11:03:07;;;;;;;3.00;2.42;;;30.80;50.20;;;;;;4950874;29;20027;-77
2023/06/06 11:05:33;;;;;;;3.45;2.40;;;31.40;50.30;;;;;;4933462;29;20034;-77
2023/06/06 11:08:02;;;;;;;2.75;2.30;;;30.60;49.40;;;;;;4951031;29;20035;-77
2023/06/06 11:10:44;;;;;;;2.83;2.22;;;31.20;50.60;;;;;;4949796;29;20034;-82
2023/06/06 11:13:26;;;;;;;2.70;2.40;;;31.30;48.40;;;;;;4951360;29;20090;-76
2023/06/06 11:15:58;;;;;;;2.70;2.50;;;31.80;48.80;;;;;;4951294;29;20090;-79
2023/06/06 11:18:39;;;;;;;4.97;2.75;;;31.80;48.90;;;;;;4949086;29;20066;-77
2023/06/06 11:21:05;;;;;;;3.92;2.47;;;31.70;47.20;;;;;;4949391;29;20404;-80
2023/06/06 11:23:41;;;;;;;3.03;2.72;;;30.70;49.00;;;;;;4951171;29;20023;-78
2023/06/06 11:26:09;;;;;;;3.30;2.17;;;30.40;51.90;;;;;;4954651;29;20026;-78
2023/06/06 11:28:36;;;;;;;;;;;30.60;51.20;;;;;;4950863;29;20469;-78
2023/06/06 11:31:02;;;;;;;2.78;2.45;;;31.70;48.80;;;;;;4953070;29;19910;-79
2023/06/06 11:33:28;;;;;;;2.67;2.15;;;32.00;50.20;;;;;;4952842;29;20035;-78
2023/06/06 11:35:55;;;;;;;3.28;2.30;;;33.00;50.30;;;;;;4948450;29;20034;-78
2023/06/06 11:38:21;;;;;;;5.45;2.80;;;32.70;48.10;;;;;;4951517;29;20110;-80
2023/06/06 11:40:47;;;;;;;3.97;2.63;;;30.90;48.80;;;;;;4953381;29;20034;-79
2023/06/06 11:43:12;;;;;;;3.05;2.35;;;29.70;50.20;;;;;;4948814;29;20051;-78
2023/06/06 11:45:39;;;;;;;3.08;2.83;;;28.40;51.70;;;;;;4951042;29;20027;-78
2023/06/06 11:48:21;;;;;;;2.60;2.40;;;28.40;52.40;;;;;;4949534;29;20032;-78
2023/06/06 11:50:48;;;;;;;2.55;2.35;;;28.00;53.40;;;;;;4950258;29;20388;-78
2023/06/06 11:53:28;;;;;;;3.95;2.70;;;27.70;55.00;;;;;;4961941;28;20093;-78
2023/06/06 11:55:54;;;;;;;2.67;2.08;;;27.50;54.30;;;;;;4962247;28;20015;-78
2023/06/06 11:58:20;;;;;;;3.72;2.42;;;28.50;54.20;;;;;;4962196;28;20228;-78
2023/06/06 12:00:46;;;;;;;2.80;2.38;;;29.50;51.90;;;;;;4962347;28;20015;-78
2023/06/06 12:03:15;;;;;;;2.20;2.10;;;30.90;49.70;;;;;;4969396;28;20035;-78
2023/06/06 12:05:44;;;;;;;;;;;31.40;50.90;;;;;;4968141;28;20267;-79
2023/06/06 12:08:10;;;;;;;2.42;2.15;;;31.60;47.10;;;;;;4969083;28;19914;-79
2023/06/06 12:10:35;;;;;;;2.78;2.58;;;31.80;47.70;;;;;;4951546;28;20027;-78
2023/06/06 12:13:01;;;;;;;2.47;1.80;;;32.40;48.10;;;;;;4952629;28;20037;-78
2023/06/06 12:15:48;;;;;;;2.55;2.28;;;33.00;45.60;;;;;;4970201;28;20534;-78
2023/06/06 12:18:14;;;;;;;2.15;2.03;;;33.40;46.30;;;;;;4969198;28;20415;-78
2023/06/06 12:20:40;;;;;;;4.43;2.38;;;33.50;47.20;;;;;;4930903;28;20056;-78
2023/06/06 12:23:05;;;;;;;3.20;2.00;;;32.90;47.20;;;;;;4906493;29;20032;-79
2023/06/06 12:25:31;;;;;;;3.22;2.45;;;33.50;46.50;;;;;;4906130;29;20047;-79
2023/06/06 12:28:10;;;;;;;3.58;2.60;;;32.70;44.20;;;;;;4906703;29;20059;-79
2023/06/06 12:30:36;;;;;;;4.65;2.05;;;32.10;45.40;;;;;;4906316;29;20030;-79
2023/06/06 12:33:02;;;;;;;3.33;2.70;;;31.80;46.20;;;;;;4906386;29;20021;-78
2023/06/06 12:35:28;;;;;;;5.32;2.95;;;31.70;46.90;;;;;;4906370;29;20266;-78
2023/06/06 12:37:55;;;;;;;2.13;1.95;;;31.80;48.10;;;;;;4906424;29;20031;-79
2023/06/06 12:40:33;;;;;;;2.53;2.33;;;32.70;46.10;;;;;;4906196;29;20016;-78
2023/06/06 12:43:00;;;;;;;;;;;32.30;44.80;;;;;;4906897;29;20063;-79
2023/06/06 12:45:27;;;;;;;4.75;2.50;;;32.30;45.90;;;;;;4923346;29;19946;-79
2023/06/06 12:47:58;;;;;;;7.95;2.72;;;32.00;45.10;;;;;;4924034;29;20039;-79
2023/06/06 12:50:25;;;;;;;3.60;2.22;;;32.20;44.60;;;;;;4925041;29;20028;-78
2023/06/06 12:52:51;;;;;;;2.47;2.28;;;31.70;45.90;;;;;;4925507;29;20095;-78
2023/06/06 12:55:17;;;;;;;2.38;2.00;;;32.30;45.50;;;;;;4925130;29;20063;-79
2023/06/06 12:57:44;;;;;;;2.30;2.10;;;31.60;44.90;;;;;;4925081;29;20056;-79
2023/06/06 13:00:11;;;;;;;2.58;2.33;;;31.60;45.10;;;;;;4925607;29;20083;-79
2023/06/06 13:02:41;;;;;;;4.63;2.90;;;31.50;44.60;;;;;;4909636;29;20313;-78
2023/06/06 13:05:07;;;;;;;3.90;3.20;;;32.00;45.90;;;;;;4925701;29;20107;-78
2023/06/06 13:07:34;;;;;;;2.15;2.05;;;32.20;44.80;;;;;;4924584;29;20115;-79
2023/06/06 13:10:01;;;;;;;2.53;2.17;;;32.10;43.90;;;;;;4924636;29;20072;-79
2023/06/06 13:12:27;;;;;;;3.22;2.08;;;31.30;45.30;;;;;;4925068;29;20024;-80
2023/06/06 13:14:56;;;;;;;5.95;2.38;;;30.50;46.50;;;;;;4924644;29;20024;-79
2023/06/06 13:17:23;;;;;;;1.85;1.70;;;29.60;44.60;;;;;;4925032;29;20056;-79
2023/06/06 13:19:49;;;;;;;3.78;2.38;;;29.60;45.60;;;;;;4926102;29;20020;-78
2023/06/06 13:22:15;;;;;;;2.85;2.28;;;29.90;45.00;;;;;;4924891;29;20024;-79
2023/06/06 13:24:41;;;;;;;3.47;2.42;;;30.50;44.70;;;;;;4923892;29;20242;-79
2023/06/06 13:27:06;;;;;;;3.35;2.53;;;31.60;44.80;;;;;;4924249;29;20032;-78
2023/06/06 13:29:33;;;;;;;2.50;2.30;;;32.70;41.90;;;;;;4923893;29;20028;-78
2023/06/06 13:31:58;;;;;;;3.38;2.38;;;32.80;42.60;;;;;;4923913;29;20132;-78
2023/06/06 13:34:24;;;;;;;3.90;2.30;;;32.70;40.50;;;;;;4916872;29;20059;-79
2023/06/06 13:36:50;;;;;;;3.92;2.08;;;33.40;42.20;;;;;;4926132;29;20020;-78
2023/06/06 13:39:15;;;;;;;3.22;2.53;;;33.80;41.20;;;;;;4925826;29;20036;-79
2023/06/06 13:41:42;;;;;;;2.55;2.35;;;33.50;40.10;;;;;;4924846;29;20315;-78
2023/06/06 13:44:18;;;;;;;2.13;1.92;;;32.70;41.60;;;;;;4924515;29;20047;-78
2023/06/06 13:46:44;;;;;;;2.20;2.00;;;31.60;43.80;;;;;;4926169;29;20313;-82
2023/06/06 13:49:12;;;;;;;2.22;2.03;;;31.70;44.90;;;;;;4926008;29;20020;-77
2023/06/06 13:51:42;;;;;;;3.20;1.80;;;31.90;43.50;;;;;;4925345;29;20083;-79
2023/06/06 13:54:09;;;;;;;6.53;2.22;;;32.90;42.70;;;;;;4916599;29;20024;-80
2023/06/06 13:56:35;;;;;;;2.13;1.90;;;32.90;41.20;;;;;;4920909;29;20068;-77
2023/06/06 13:59:05;;;;;;;2.40;2.17;;;33.40;42.50;;;;;;4920296;29;20044;-77
2023/06/06 14:01:31;;;;;;;2.13;1.95;;;33.40;41.30;;;;;;4921207;29;20021;-77
2023/06/06 14:03:57;;;;;;;2.38;2.10;;;33.20;42.40;;;;;;4906039;29;20040;-77
2023/06/06 14:06:23;;;;;;;1.95;1.83;;;33.70;43.30;;;;;;4905851;29;20025;-78
2023/06/06 14:08:50;;;;;;;6.80;2.10;;;33.70;41.60;;;;;;4920450;29;20033;-77
2023/06/06 14:11:16;;;;;;;4.72;1.83;;;33.60;41.50;;;;;;4910166;29;20433;-78
2023/06/06 14:13:42;;;;;;;2.50;2.15;;;33.60;42.40;;;;;;4895507;29;20048;-77
2023/06/06 14:16:10;;;;;;;1.65;1.55;;;33.40;40.70;;;;;;4909762;29;20052;-77
2023/06/06 14:18:38;;;;;;;1.92;1.83;;;33.60;42.40;;;;;;4895277;29;20121;-78
2023/06/06 14:21:19;;;;;;;3.35;1.60;;;34.40;41.60;;;;;;4909570;29;20055;-77
2023/06/06 14:23:50;;;;;;;2.40;1.88;;;34.30;40.70;;;;;;4909861;29;20391;-77
2023/06/06 14:26:21;;;;;;;1.75;1.65;;;34.10;40.00;;;;;;4914034;29;20043;-78
2023/06/06 14:28:47;;;;;;;2.63;2.15;;;34.20;40.50;;;;;;4912779;29;20032;-78
2023/06/06 14:31:13;;;;;;;1.90;1.73;;;34.30;40.00;;;;;;4909577;29;20042;-78
2023/06/06 14:33:38;;;;;;;2.70;1.80;;;34.50;39.10;;;;;;4921747;29;20063;-76
2023/06/06 14:36:05;;;;;;;4.47;1.73;;;34.90;41.20;;;;;;4920186;29;20307;-79
2023/06/06 14:38:33;;;;;;;3.92;2.00;;;35.70;39.70;;;;;;4921549;29;20028;-79
2023/06/06 14:40:59;;;;;;;5.30;2.38;;;36.00;39.50;;;;;;4921837;29;20168;-77
2023/06/06 14:43:25;;;;;;;2.45;1.88;;;35.80;40.00;;;;;;4906161;29;20060;-78
2023/06/06 14:45:50;;;;;;;6.18;2.55;;;34.80;40.20;;;;;;4922180;29;20236;-79
2023/06/06 14:48:16;;;;;;;1.95;1.75;;;32.50;43.40;;;;;;4908020;29;20429;-79
2023/06/06 14:50:42;;;;;;;5.47;1.50;;;31.90;43.90;;;;;;4906687;29;20043;-78